createdAt,value
2023-04-22T00:00:07.204Z,975.57
2023-04-22T00:01:07.194Z,975.54
2023-04-22T00:02:07.244Z,975.52
2023-04-22T00:03:07.284Z,975.54
2023-04-22T00:04:07.376Z,975.57
2023-04-22T00:05:07.273Z,975.56
2023-04-22T00:06:07.144Z,975.60
2023-04-22T00:07:07.115Z,975.56
2023-04-22T00:08:07.112Z,975.60
2023-04-22T00:09:07.106Z,975.56
2023-04-22T00:10:07.093Z,975.44
2023-04-22T00:11:07.091Z,975.55
2023-04-22T00:12:07.073Z,975.51
2023-04-22T00:13:07.062Z,975.51
2023-04-22T00:14:07.048Z,975.54
2023-04-22T00:15:07.031Z,975.48
2023-04-22T00:16:07.049Z,975.54
2023-04-22T00:17:07.180Z,975.52
2023-04-22T00:18:07.086Z,975.57
2023-04-22T00:19:07.001Z,975.61
2023-04-22T00:20:06.987Z,975.59
2023-04-22T00:21:06.990Z,975.61
2023-04-22T00:22:06.964Z,975.56
2023-04-22T00:23:06.957Z,975.62
2023-04-22T00:24:06.943Z,975.56
2023-04-22T00:25:06.932Z,975.57
2023-04-22T00:26:06.937Z,975.60
2023-04-22T00:27:06.914Z,975.60
2023-04-22T00:28:06.898Z,975.62
2023-04-22T00:29:06.904Z,975.62
2023-04-22T00:30:06.886Z,975.56
2023-04-22T00:31:06.942Z,975.60
2023-04-22T00:32:06.864Z,975.53
2023-04-22T00:33:06.935Z,975.50
2023-04-22T00:34:06.839Z,975.54
2023-04-22T00:35:06.832Z,975.53
2023-04-22T00:36:06.832Z,975.59
2023-04-22T00:37:06.810Z,975.54
2023-04-22T00:38:06.800Z,975.52
2023-04-22T00:39:06.793Z,975.52
2023-04-22T00:40:06.825Z,975.57
2023-04-22T00:41:06.762Z,975.53
2023-04-22T00:42:06.744Z,975.64
2023-04-22T00:43:06.751Z,975.54
2023-04-22T00:44:06.720Z,975.54
2023-04-22T00:45:06.759Z,975.53
2023-04-22T00:46:06.734Z,975.49
2023-04-22T00:47:06.840Z,975.48
2023-04-22T00:48:06.765Z,975.45
2023-04-22T00:49:06.761Z,975.53
2023-04-22T00:50:06.774Z,975.52
2023-04-22T00:51:06.664Z,975.51
2023-04-22T00:52:06.637Z,975.52
2023-04-22T00:53:06.624Z,975.55
2023-04-22T00:54:06.613Z,975.57
2023-04-22T00:55:06.607Z,975.60
2023-04-22T00:56:06.610Z,975.60
2023-04-22T00:57:07.601Z,975.57
2023-04-22T00:58:06.565Z,975.55
2023-04-22T00:59:06.558Z,975.58
2023-04-22T01:00:06.555Z,975.55
2023-04-22T01:01:06.583Z,975.59
2023-04-22T01:02:06.617Z,975.63
2023-04-22T01:03:06.732Z,975.59
2023-04-22T01:04:06.756Z,975.67
2023-04-22T01:05:06.492Z,975.53
2023-04-22T01:06:06.494Z,975.50
2023-04-22T01:07:06.481Z,975.62
2023-04-22T01:08:06.464Z,975.63
2023-04-22T01:09:06.452Z,975.55
2023-04-22T01:10:06.444Z,975.63
2023-04-22T01:11:06.440Z,975.65
2023-04-22T01:12:06.415Z,975.64
2023-04-22T01:13:06.411Z,975.57
2023-04-22T01:14:06.427Z,975.61
2023-04-22T01:15:06.393Z,975.61
2023-04-22T01:16:06.465Z,975.64
2023-04-22T01:17:06.468Z,975.63
2023-04-22T01:18:06.411Z,975.62
2023-04-22T01:19:06.350Z,975.58
2023-04-22T01:20:06.345Z,975.63
2023-04-22T01:21:06.330Z,975.66
2023-04-22T01:22:06.315Z,975.61
2023-04-22T01:23:06.307Z,975.58
2023-04-22T01:24:06.285Z,975.63
2023-04-22T01:25:07.284Z,975.65
2023-04-22T01:26:06.284Z,975.61
2023-04-22T01:27:06.265Z,975.62
2023-04-22T01:28:06.256Z,975.66
2023-04-22T01:29:06.263Z,975.64
2023-04-22T01:30:06.229Z,975.65
2023-04-22T01:31:06.229Z,975.70
2023-04-22T01:32:06.337Z,975.69
2023-04-22T01:33:06.252Z,975.66
2023-04-22T01:34:06.188Z,975.68
2023-04-22T01:35:06.176Z,975.62
2023-04-22T01:36:06.233Z,975.66
2023-04-22T01:37:06.158Z,975.67
2023-04-22T01:38:06.143Z,975.62
2023-04-22T01:39:06.132Z,975.68
2023-04-22T01:40:06.128Z,975.66
2023-04-22T01:41:06.119Z,975.69
2023-04-22T01:42:06.102Z,975.65
2023-04-22T01:43:06.094Z,975.65
2023-04-22T01:44:06.096Z,975.60
2023-04-22T01:45:06.070Z,975.64
2023-04-22T01:46:06.113Z,975.61
2023-04-22T01:47:06.060Z,975.60
2023-04-22T01:48:06.084Z,975.61
2023-04-22T01:49:06.034Z,975.65
2023-04-22T01:50:06.024Z,975.65
2023-04-22T01:51:06.016Z,975.69
2023-04-22T01:52:06.998Z,975.68
2023-04-22T01:53:05.985Z,975.64
2023-04-22T01:54:05.979Z,975.68
2023-04-22T01:55:05.963Z,975.61
2023-04-22T01:56:05.967Z,975.65
2023-04-22T01:57:05.947Z,975.65
2023-04-22T01:58:05.933Z,975.61
2023-04-22T01:59:05.933Z,975.64
2023-04-22T02:00:05.938Z,975.64
2023-04-22T02:01:05.983Z,975.64
2023-04-22T02:02:05.915Z,975.68
2023-04-22T02:03:05.971Z,975.70
2023-04-22T02:04:05.871Z,975.64
2023-04-22T02:05:05.893Z,975.66
2023-04-22T02:06:05.867Z,975.64
2023-04-22T02:07:05.848Z,975.59
2023-04-22T02:08:05.835Z,975.66
2023-04-22T02:09:05.831Z,975.71
2023-04-22T02:10:05.816Z,975.64
2023-04-22T02:11:05.816Z,975.67
2023-04-22T02:12:05.798Z,975.67
2023-04-22T02:13:05.789Z,975.66
2023-04-22T02:14:05.774Z,975.73
2023-04-22T02:15:05.770Z,975.73
2023-04-22T02:16:05.842Z,975.67
2023-04-22T02:17:05.754Z,975.73
2023-04-22T02:18:05.726Z,975.80
2023-04-22T02:19:05.713Z,975.67
2023-04-22T02:20:05.721Z,975.68
2023-04-22T02:21:05.706Z,975.70
2023-04-22T02:22:05.684Z,975.65
2023-04-22T02:23:05.677Z,975.74
2023-04-22T02:24:05.672Z,975.74
2023-04-22T02:25:05.654Z,975.69
2023-04-22T02:26:05.656Z,975.69
2023-04-22T02:27:05.637Z,975.69
2023-04-22T02:28:05.629Z,975.69
2023-04-22T02:29:05.646Z,975.67
2023-04-22T02:30:05.603Z,975.67
2023-04-22T02:31:05.646Z,975.70
2023-04-22T02:32:05.584Z,975.70
2023-04-22T02:33:05.634Z,975.71
2023-04-22T02:34:05.565Z,975.68
2023-04-22T02:35:05.549Z,975.69
2023-04-22T02:36:05.565Z,975.71
2023-04-22T02:37:05.543Z,975.69
2023-04-22T02:38:05.533Z,975.77
2023-04-22T02:39:05.513Z,975.73
2023-04-22T02:40:05.509Z,975.75
2023-04-22T02:41:05.500Z,975.79
2023-04-22T02:42:05.513Z,975.74
2023-04-22T02:43:05.472Z,975.70
2023-04-22T02:44:05.457Z,975.74
2023-04-22T02:45:05.459Z,975.72
2023-04-22T02:46:05.509Z,975.67
2023-04-22T02:47:05.522Z,975.72
2023-04-22T02:48:05.489Z,975.67
2023-04-22T02:49:05.421Z,975.66
2023-04-22T02:50:05.404Z,975.64
2023-04-22T02:51:05.394Z,975.66
2023-04-22T02:52:05.403Z,975.68
2023-04-22T02:53:05.373Z,975.70
2023-04-22T02:54:05.452Z,975.68
2023-04-22T02:55:05.347Z,975.66
2023-04-22T02:56:05.351Z,975.69
2023-04-22T02:57:05.364Z,975.83
2023-04-22T02:58:05.321Z,975.75
2023-04-22T02:59:05.306Z,975.82
2023-04-22T03:00:05.292Z,975.78
2023-04-22T03:01:05.390Z,975.76
2023-04-22T03:02:06.930Z,975.78
2023-04-22T03:03:06.383Z,975.81
2023-04-22T03:04:05.323Z,975.83
2023-04-22T03:05:05.268Z,975.78
2023-04-22T03:06:05.271Z,975.81
2023-04-22T03:07:05.229Z,975.77
2023-04-22T03:08:05.219Z,975.86
2023-04-22T03:09:05.214Z,975.84
2023-04-22T03:10:05.193Z,975.85
2023-04-22T03:11:05.197Z,975.88
2023-04-22T03:12:05.196Z,975.85
2023-04-22T03:13:05.173Z,975.85
2023-04-22T03:14:05.154Z,975.87
2023-04-22T03:15:05.137Z,975.82
2023-04-22T03:16:05.184Z,975.81
2023-04-22T03:17:05.136Z,975.77
2023-04-22T03:18:05.194Z,975.84
2023-04-22T03:19:05.111Z,975.81
2023-04-22T03:20:05.114Z,975.77
2023-04-22T03:21:05.093Z,975.74
2023-04-22T03:22:05.234Z,975.72
2023-04-22T03:23:05.064Z,975.72
2023-04-22T03:24:05.083Z,975.71
2023-04-22T03:25:05.041Z,975.71
2023-04-22T03:26:05.044Z,975.69
2023-04-22T03:27:05.033Z,975.77
2023-04-22T03:28:05.017Z,975.74
2023-04-22T03:29:05.001Z,975.75
2023-04-22T03:30:04.990Z,975.74
2023-04-22T03:31:04.999Z,975.69
2023-04-22T03:32:05.061Z,975.71
2023-04-22T03:33:05.022Z,975.69
2023-04-22T03:34:04.951Z,975.76
2023-04-22T03:35:04.949Z,975.71
2023-04-22T03:36:04.943Z,975.68
2023-04-22T03:37:04.933Z,975.70
2023-04-22T03:38:04.932Z,975.74
2023-04-22T03:39:04.937Z,975.70
2023-04-22T03:40:04.913Z,975.67
2023-04-22T03:41:04.898Z,975.73
2023-04-22T03:42:04.875Z,975.71
2023-04-22T03:43:04.867Z,975.73
2023-04-22T03:44:04.876Z,975.65
2023-04-22T03:45:04.849Z,975.66
2023-04-22T03:46:04.889Z,975.67
2023-04-22T03:47:04.826Z,975.69
2023-04-22T03:48:04.843Z,975.65
2023-04-22T03:49:04.798Z,975.63
2023-04-22T03:50:04.829Z,975.65
2023-04-22T03:51:04.779Z,975.65
2023-04-22T03:52:04.779Z,975.68
2023-04-22T03:53:04.757Z,975.64
2023-04-22T03:54:04.750Z,975.63
2023-04-22T03:55:04.735Z,975.64
2023-04-22T03:56:04.725Z,975.66
2023-04-22T03:57:04.718Z,975.66
2023-04-22T03:58:04.703Z,975.61
2023-04-22T03:59:04.686Z,975.68
2023-04-22T04:00:04.670Z,975.67
2023-04-22T04:01:04.663Z,975.65
2023-04-22T04:02:04.788Z,975.57
2023-04-22T04:03:04.900Z,975.58
2023-04-22T04:04:04.831Z,975.56
2023-04-22T04:05:04.830Z,975.58
2023-04-22T04:06:04.823Z,975.51
2023-04-22T04:07:04.621Z,975.58
2023-04-22T04:08:04.588Z,975.53
2023-04-22T04:09:04.589Z,975.62
2023-04-22T04:10:04.572Z,975.49
2023-04-22T04:11:04.568Z,975.53
2023-04-22T04:12:04.572Z,975.58
2023-04-22T04:13:04.547Z,975.55
2023-04-22T04:14:04.535Z,975.59
2023-04-22T04:15:04.544Z,975.63
2023-04-22T04:16:04.544Z,975.67
2023-04-22T04:17:04.522Z,975.62
2023-04-22T04:18:04.587Z,975.56
2023-04-22T04:19:04.510Z,975.62
2023-04-22T04:20:04.488Z,975.61
2023-04-22T04:21:04.462Z,975.65
2023-04-22T04:22:04.477Z,975.63
2023-04-22T04:23:04.447Z,975.57
2023-04-22T04:24:04.459Z,975.51
2023-04-22T04:25:04.428Z,975.56
2023-04-22T04:26:04.417Z,975.58
2023-04-22T04:27:04.419Z,975.53
2023-04-22T04:28:04.419Z,975.56
2023-04-22T04:29:04.392Z,975.56
2023-04-22T04:30:04.383Z,975.50
2023-04-22T04:31:04.380Z,975.59
2023-04-22T04:32:04.359Z,975.60
2023-04-22T04:33:04.501Z,975.53
2023-04-22T04:34:04.368Z,975.57
2023-04-22T04:35:04.314Z,975.55
2023-04-22T04:36:04.313Z,975.50
2023-04-22T04:37:04.332Z,975.51
2023-04-22T04:38:04.280Z,975.51
2023-04-22T04:39:04.273Z,975.50
2023-04-22T04:40:04.264Z,975.44
2023-04-22T04:41:04.260Z,975.43
2023-04-22T04:42:04.269Z,975.51
2023-04-22T04:43:04.236Z,975.50
2023-04-22T04:44:04.219Z,975.48
2023-04-22T04:45:04.249Z,975.49
2023-04-22T04:46:04.231Z,975.45
2023-04-22T04:47:04.375Z,975.36
2023-04-22T04:48:04.224Z,975.36
2023-04-22T04:49:04.168Z,975.43
2023-04-22T04:50:04.163Z,975.41
2023-04-22T04:51:04.148Z,975.35
2023-04-22T04:52:04.153Z,975.40
2023-04-22T04:53:04.126Z,975.37
2023-04-22T04:54:04.120Z,975.33
2023-04-22T04:55:04.106Z,975.36
2023-04-22T04:56:04.093Z,975.40
2023-04-22T04:57:04.089Z,975.41
2023-04-22T04:58:04.069Z,975.42
2023-04-22T04:59:04.059Z,975.46
2023-04-22T05:00:04.046Z,975.45
2023-04-22T05:01:04.036Z,975.43
2023-04-22T05:02:04.091Z,975.41
2023-04-22T05:03:04.112Z,975.49
2023-04-22T05:04:05.133Z,975.43
2023-04-22T05:05:05.020Z,975.46
2023-04-22T05:06:03.996Z,975.46
2023-04-22T05:07:03.987Z,975.51
2023-04-22T05:08:03.982Z,975.56
2023-04-22T05:09:03.959Z,975.60
2023-04-22T05:10:03.960Z,975.55
2023-04-22T05:11:03.948Z,975.57
2023-04-22T05:12:03.946Z,975.55
2023-04-22T05:13:04.329Z,975.61
2023-04-22T05:14:04.913Z,975.59
2023-04-22T05:15:03.897Z,975.56
2023-04-22T05:16:03.894Z,975.60
2023-04-22T05:17:03.890Z,975.66
2023-04-22T05:18:03.914Z,975.68
2023-04-22T05:19:03.858Z,975.69
2023-04-22T05:20:03.845Z,975.63
2023-04-22T05:21:03.838Z,975.69
2023-04-22T05:22:03.839Z,975.65
2023-04-22T05:23:03.820Z,975.65
2023-04-22T05:24:03.799Z,975.72
2023-04-22T05:25:03.794Z,975.68
2023-04-22T05:26:03.802Z,975.69
2023-04-22T05:27:03.791Z,975.67
2023-04-22T05:28:03.762Z,975.69
2023-04-22T05:29:03.756Z,975.69
2023-04-22T05:30:03.752Z,975.63
2023-04-22T05:31:03.733Z,975.67
2023-04-22T05:32:03.776Z,975.68
2023-04-22T05:33:03.729Z,975.69
2023-04-22T05:34:03.700Z,975.66
2023-04-22T05:35:03.711Z,975.68
2023-04-22T05:36:03.686Z,975.69
2023-04-22T05:37:03.687Z,975.69
2023-04-22T05:38:03.659Z,975.71
2023-04-22T05:39:03.650Z,975.75
2023-04-22T05:40:03.637Z,975.69
2023-04-22T05:41:03.624Z,975.68
2023-04-22T05:42:03.618Z,975.71
2023-04-22T05:43:03.608Z,975.68
2023-04-22T05:44:03.590Z,975.67
2023-04-22T05:45:03.570Z,975.67
2023-04-22T05:46:03.624Z,975.71
2023-04-22T05:47:03.575Z,975.73
2023-04-22T05:48:03.586Z,975.75
2023-04-22T05:49:03.537Z,975.71
2023-04-22T05:50:03.526Z,975.64
2023-04-22T05:51:03.509Z,975.65
2023-04-22T05:52:03.514Z,975.66
2023-04-22T05:53:03.488Z,975.59
2023-04-22T05:54:03.473Z,975.59
2023-04-22T05:55:03.468Z,975.53
2023-04-22T05:56:03.466Z,975.53
2023-04-22T05:57:03.455Z,975.55
2023-04-22T05:58:03.474Z,975.54
2023-04-22T05:59:03.420Z,975.58
2023-04-22T06:00:03.431Z,975.53
2023-04-22T06:01:03.404Z,975.56
2023-04-22T06:02:03.458Z,975.53
2023-04-22T06:03:03.511Z,975.55
2023-04-22T06:04:03.504Z,975.51
2023-04-22T06:05:03.679Z,975.54
2023-04-22T06:06:03.489Z,975.65
2023-04-22T06:07:03.362Z,975.60
2023-04-22T06:08:03.322Z,975.55
2023-04-22T06:09:03.313Z,975.53
2023-04-22T06:10:05.463Z,975.59
2023-04-22T06:11:04.301Z,975.56
2023-04-22T06:12:03.287Z,975.57
2023-04-22T06:13:03.288Z,975.56
2023-04-22T06:14:03.260Z,975.62
2023-04-22T06:15:03.252Z,975.52
2023-04-22T06:16:03.265Z,975.51
2023-04-22T06:17:03.252Z,975.47
2023-04-22T06:18:03.333Z,975.53
2023-04-22T06:19:03.220Z,975.51
2023-04-22T06:20:03.198Z,975.50
2023-04-22T06:21:03.188Z,975.53
2023-04-22T06:22:03.178Z,975.54
2023-04-22T06:23:03.181Z,975.53
2023-04-22T06:24:03.156Z,975.54
2023-04-22T06:25:03.151Z,975.51
2023-04-22T06:26:03.144Z,975.51
2023-04-22T06:27:03.142Z,975.53
2023-04-22T06:28:03.114Z,975.46
2023-04-22T06:29:03.125Z,975.45
2023-04-22T06:30:03.099Z,975.49
2023-04-22T06:31:03.112Z,975.48
2023-04-22T06:32:03.092Z,975.52
2023-04-22T06:33:03.095Z,975.47
2023-04-22T06:34:03.052Z,975.48
2023-04-22T06:35:03.044Z,975.50
2023-04-22T06:36:03.031Z,975.47
2023-04-22T06:37:03.027Z,975.48
2023-04-22T06:38:03.032Z,975.53
2023-04-22T06:39:03.002Z,975.48
2023-04-22T06:40:03.024Z,975.48
2023-04-22T06:41:02.979Z,975.50
2023-04-22T06:42:02.971Z,975.58
2023-04-22T06:43:02.973Z,975.54
2023-04-22T06:44:02.949Z,975.56
2023-04-22T06:45:02.945Z,975.53
2023-04-22T06:46:02.928Z,975.53
2023-04-22T06:47:03.021Z,975.53
2023-04-22T06:48:02.922Z,975.50
2023-04-22T06:49:02.901Z,975.52
2023-04-22T06:50:02.901Z,975.52
2023-04-22T06:51:02.879Z,975.51
2023-04-22T06:52:02.868Z,975.52
2023-04-22T06:53:02.872Z,975.58
2023-04-22T06:54:02.846Z,975.53
2023-04-22T06:55:02.854Z,975.51
2023-04-22T06:56:02.847Z,975.59
2023-04-22T06:57:02.819Z,975.54
2023-04-22T06:58:02.821Z,975.56
2023-04-22T06:59:02.799Z,975.53
2023-04-22T07:00:02.805Z,975.61
2023-04-22T07:01:02.780Z,975.57
2023-04-22T07:02:02.847Z,975.60
2023-04-22T07:03:02.893Z,975.58
2023-04-22T07:04:02.772Z,975.55
2023-04-22T07:05:02.762Z,975.55
2023-04-22T07:06:02.724Z,975.54
2023-04-22T07:07:02.727Z,975.50
2023-04-22T07:08:03.708Z,975.47
2023-04-22T07:09:02.694Z,975.51
2023-04-22T07:10:02.687Z,975.50
2023-04-22T07:11:02.679Z,975.51
2023-04-22T07:12:02.673Z,975.49
2023-04-22T07:13:02.667Z,975.47
2023-04-22T07:14:02.677Z,975.51
2023-04-22T07:15:02.655Z,975.50
2023-04-22T07:16:02.654Z,975.41
2023-04-22T07:17:02.636Z,975.41
2023-04-22T07:18:02.614Z,975.43
2023-04-22T07:19:02.617Z,975.42
2023-04-22T07:20:02.585Z,975.46
2023-04-22T07:21:02.591Z,975.46
2023-04-22T07:22:02.596Z,975.44
2023-04-22T07:23:02.561Z,975.41
2023-04-22T07:24:02.582Z,975.49
2023-04-22T07:25:02.543Z,975.46
2023-04-22T07:26:02.526Z,975.44
2023-04-22T07:27:02.531Z,975.44
2023-04-22T07:28:02.516Z,975.44
2023-04-22T07:29:02.497Z,975.48
2023-04-22T07:30:02.481Z,975.43
2023-04-22T07:31:02.488Z,975.43
2023-04-22T07:32:02.493Z,975.38
2023-04-22T07:33:02.498Z,975.34
2023-04-22T07:34:02.443Z,975.40
2023-04-22T07:35:02.438Z,975.32
2023-04-22T07:36:02.419Z,975.33
2023-04-22T07:37:02.426Z,975.37
2023-04-22T07:38:02.416Z,975.33
2023-04-22T07:39:02.407Z,975.40
2023-04-22T07:40:02.380Z,975.37
2023-04-22T07:41:02.373Z,975.40
2023-04-22T07:42:02.378Z,975.43
2023-04-22T07:43:02.353Z,975.38
2023-04-22T07:44:02.362Z,975.38
2023-04-22T07:45:02.356Z,975.35
2023-04-22T07:46:02.372Z,975.41
2023-04-22T07:47:02.321Z,975.39
2023-04-22T07:48:02.306Z,975.35
2023-04-22T07:49:02.295Z,975.29
2023-04-22T07:50:02.281Z,975.34
2023-04-22T07:51:02.289Z,975.32
2023-04-22T07:52:02.272Z,975.27
2023-04-22T07:53:02.263Z,975.27
2023-04-22T07:54:02.258Z,975.26
2023-04-22T07:55:02.225Z,975.28
2023-04-22T07:56:03.228Z,975.27
2023-04-22T07:57:02.219Z,975.29
2023-04-22T07:58:02.226Z,975.29
2023-04-22T07:59:02.196Z,975.25
2023-04-22T08:00:02.190Z,975.26
2023-04-22T08:01:02.196Z,975.26
2023-04-22T08:02:02.241Z,975.26
2023-04-22T08:03:02.318Z,975.28
2023-04-22T08:04:02.297Z,975.31
2023-04-22T08:05:02.280Z,975.29
2023-04-22T08:06:02.149Z,975.22
2023-04-22T08:07:09.277Z,975.25
2023-04-22T08:08:04.120Z,975.19
2023-04-22T08:09:02.106Z,975.21
2023-04-22T08:10:02.087Z,975.22
2023-04-22T08:11:02.084Z,975.17
2023-04-22T08:12:02.076Z,975.16
2023-04-22T08:13:02.076Z,975.15
2023-04-22T08:14:02.053Z,975.13
2023-04-22T08:15:02.040Z,975.10
2023-04-22T08:16:02.090Z,975.07
2023-04-22T08:17:02.021Z,974.97
2023-04-22T08:18:02.047Z,975.03
2023-04-22T08:19:02.003Z,974.99
2023-04-22T08:20:01.991Z,974.99
2023-04-22T08:21:02.007Z,975.04
2023-04-22T08:22:01.976Z,975.05
2023-04-22T08:23:01.967Z,975.06
2023-04-22T08:24:01.964Z,975.03
2023-04-22T08:25:01.941Z,975.05
2023-04-22T08:26:01.930Z,975.05
2023-04-22T08:27:01.919Z,975.01
2023-04-22T08:28:01.926Z,975.06
2023-04-22T08:29:01.898Z,975.02
2023-04-22T08:30:01.916Z,975.00
2023-04-22T08:31:01.913Z,975.03
2023-04-22T08:32:01.874Z,975.03
2023-04-22T08:33:01.908Z,974.95
2023-04-22T08:34:01.887Z,974.92
2023-04-22T08:35:05.164Z,974.95
2023-04-22T08:36:02.828Z,974.97
2023-04-22T08:37:02.818Z,974.93
2023-04-22T08:38:01.813Z,974.97
2023-04-22T08:39:01.800Z,975.03
2023-04-22T08:40:01.784Z,974.99
2023-04-22T08:41:01.781Z,974.97
2023-04-22T08:42:01.782Z,974.97
2023-04-22T08:43:01.765Z,974.95
2023-04-22T08:44:01.754Z,974.97
2023-04-22T08:45:01.736Z,975.00
2023-04-22T08:46:01.718Z,975.01
2023-04-22T08:47:03.002Z,974.95
2023-04-22T08:48:01.728Z,974.98
2023-04-22T08:49:01.709Z,975.04
2023-04-22T08:50:01.691Z,974.97
2023-04-22T08:51:01.674Z,975.02
2023-04-22T08:52:01.682Z,975.01
2023-04-22T08:53:01.652Z,974.98
2023-04-22T08:54:01.652Z,974.99
2023-04-22T08:55:01.653Z,975.00
2023-04-22T08:56:01.624Z,975.00
2023-04-22T08:57:01.641Z,974.99
2023-04-22T08:58:01.626Z,975.01
2023-04-22T08:59:01.594Z,975.03
2023-04-22T09:00:01.581Z,975.00
2023-04-22T09:01:01.571Z,974.97
2023-04-22T09:02:01.784Z,975.07
2023-04-22T09:03:01.607Z,975.00
2023-04-22T09:04:01.721Z,974.95
2023-04-22T09:05:01.537Z,974.97
2023-04-22T09:06:01.534Z,974.97
2023-04-22T09:07:01.578Z,974.92
2023-04-22T09:08:01.516Z,974.95
2023-04-22T09:09:01.496Z,974.96
2023-04-22T09:10:01.494Z,974.96
2023-04-22T09:11:01.512Z,974.93
2023-04-22T09:12:01.488Z,974.91
2023-04-22T09:13:01.463Z,974.93
2023-04-22T09:14:01.456Z,974.92
2023-04-22T09:15:01.444Z,974.91
2023-04-22T09:16:01.511Z,974.89
2023-04-22T09:17:01.448Z,974.86
2023-04-22T09:18:01.452Z,974.87
2023-04-22T09:19:01.399Z,974.84
2023-04-22T09:20:01.393Z,974.89
2023-04-22T09:21:01.385Z,974.90
2023-04-22T09:22:01.405Z,974.84
2023-04-22T09:23:01.356Z,974.81
2023-04-22T09:24:01.344Z,974.85
2023-04-22T09:25:01.337Z,974.90
2023-04-22T09:26:01.329Z,974.82
2023-04-22T09:27:01.326Z,974.85
2023-04-22T09:28:01.319Z,974.81
2023-04-22T09:29:01.302Z,974.79
2023-04-22T09:30:01.299Z,974.78
2023-04-22T09:31:01.293Z,974.80
2023-04-22T09:32:01.350Z,974.77
2023-04-22T09:33:01.371Z,974.77
2023-04-22T09:34:01.256Z,974.74
2023-04-22T09:35:01.278Z,974.86
2023-04-22T09:36:01.254Z,974.80
2023-04-22T09:37:01.241Z,974.79
2023-04-22T09:38:01.223Z,974.84
2023-04-22T09:39:01.210Z,974.78
2023-04-22T09:40:01.192Z,974.76
2023-04-22T09:41:01.177Z,974.84
2023-04-22T09:42:01.189Z,974.78
2023-04-22T09:43:01.161Z,974.74
2023-04-22T09:44:01.158Z,974.79
2023-04-22T09:45:02.133Z,974.69
2023-04-22T09:46:02.154Z,974.80
2023-04-22T09:47:01.121Z,974.77
2023-04-22T09:48:01.166Z,974.73
2023-04-22T09:49:01.101Z,974.76
2023-04-22T09:50:01.087Z,974.72
2023-04-22T09:51:02.096Z,974.68
2023-04-22T09:52:01.070Z,974.70
2023-04-22T09:53:01.081Z,974.71
2023-04-22T09:54:01.060Z,974.72
2023-04-22T09:55:01.039Z,974.70
2023-04-22T09:56:01.035Z,974.67
2023-04-22T09:57:02.026Z,974.68
2023-04-22T09:58:01.027Z,974.60
2023-04-22T09:59:01.008Z,974.60
2023-04-22T10:00:01.003Z,974.69
2023-04-22T10:01:01.017Z,974.59
2023-04-22T10:02:00.984Z,974.59
2023-04-22T10:03:01.039Z,974.63
2023-04-22T10:04:01.000Z,974.53
2023-04-22T10:05:00.952Z,974.54
2023-04-22T10:06:00.938Z,974.56
2023-04-22T10:07:00.925Z,974.55
2023-04-22T10:08:00.965Z,974.50
2023-04-22T10:09:00.905Z,974.53
2023-04-22T10:10:00.904Z,974.51
2023-04-22T10:11:00.889Z,974.43
2023-04-22T10:12:00.879Z,974.49
2023-04-22T10:13:00.885Z,974.50
2023-04-22T10:14:00.858Z,974.42
2023-04-22T10:15:00.860Z,974.48
2023-04-22T10:16:00.838Z,974.52
2023-04-22T10:17:00.873Z,974.50
2023-04-22T10:18:00.890Z,974.43
2023-04-22T10:19:00.806Z,974.40
2023-04-22T10:20:00.798Z,974.36
2023-04-22T10:21:00.794Z,974.39
2023-04-22T10:22:00.782Z,974.45
2023-04-22T10:23:00.780Z,974.41
2023-04-22T10:24:00.877Z,974.34
2023-04-22T10:25:00.743Z,974.40
2023-04-22T10:26:00.736Z,974.32
2023-04-22T10:27:00.796Z,974.39
2023-04-22T10:28:00.730Z,974.37
2023-04-22T10:29:00.709Z,974.41
2023-04-22T10:30:00.698Z,974.40
2023-04-22T10:31:00.724Z,974.30
2023-04-22T10:32:00.670Z,974.34
2023-04-22T10:33:00.719Z,974.36
2023-04-22T10:34:00.653Z,974.34
2023-04-22T10:35:00.646Z,974.34
2023-04-22T10:36:00.639Z,974.37
2023-04-22T10:37:00.848Z,974.37
2023-04-22T10:38:00.625Z,974.30
2023-04-22T10:39:00.609Z,974.30
2023-04-22T10:40:00.594Z,974.27
2023-04-22T10:41:00.592Z,974.23
2023-04-22T10:42:00.573Z,974.29
2023-04-22T10:43:00.592Z,974.22
2023-04-22T10:44:00.576Z,974.26
2023-04-22T10:45:00.551Z,974.22
2023-04-22T10:46:00.572Z,974.20
2023-04-22T10:47:00.540Z,974.18
2023-04-22T10:48:00.544Z,974.19
2023-04-22T10:49:00.520Z,974.26
2023-04-22T10:50:00.502Z,974.20
2023-04-22T10:51:00.490Z,974.23
2023-04-22T10:52:00.478Z,974.18
2023-04-22T10:53:00.477Z,974.16
2023-04-22T10:54:00.463Z,974.14
2023-04-22T10:55:00.467Z,974.15
2023-04-22T10:56:00.439Z,974.18
2023-04-22T10:57:00.436Z,974.11
2023-04-22T10:58:00.429Z,974.09
2023-04-22T10:59:01.415Z,974.05
2023-04-22T11:00:00.414Z,974.04
2023-04-22T11:01:00.440Z,974.08
2023-04-22T11:02:00.457Z,973.99
2023-04-22T11:03:00.460Z,974.02
2023-04-22T11:04:00.489Z,974.03
2023-04-22T11:05:00.363Z,974.03
2023-04-22T11:06:00.344Z,973.97
2023-04-22T11:07:00.338Z,974.06
2023-04-22T11:08:00.343Z,974.00
2023-04-22T11:09:00.317Z,973.96
2023-04-22T11:10:00.302Z,973.94
2023-04-22T11:11:00.322Z,973.94
2023-04-22T11:12:00.293Z,973.93
2023-04-22T11:13:00.288Z,973.87
2023-04-22T11:14:00.276Z,973.89
2023-04-22T11:15:00.262Z,973.90
2023-04-22T11:16:00.297Z,973.89
2023-04-22T11:17:00.251Z,973.88
2023-04-22T11:18:00.299Z,973.89
2023-04-22T11:19:00.244Z,973.91
2023-04-22T11:20:00.216Z,973.88
2023-04-22T11:21:00.205Z,973.88
2023-04-22T11:22:00.198Z,973.78
2023-04-22T11:23:00.200Z,973.75
2023-04-22T11:24:00.182Z,973.81
2023-04-22T11:25:00.180Z,973.84
2023-04-22T11:26:00.164Z,973.81
2023-04-22T11:27:00.227Z,973.86
2023-04-22T11:28:00.156Z,973.83
2023-04-22T11:29:00.145Z,973.88
2023-04-22T11:30:00.184Z,973.85
2023-04-22T11:31:00.128Z,973.85
2023-04-22T11:32:00.144Z,973.82
2023-04-22T11:33:00.212Z,973.79
2023-04-22T11:34:00.161Z,973.83
2023-04-22T11:35:00.118Z,973.75
2023-04-22T11:36:00.101Z,973.78
2023-04-22T11:37:00.066Z,973.81
2023-04-22T11:38:00.069Z,973.78
2023-04-22T11:39:00.046Z,973.78
2023-04-22T11:40:17.449Z,973.83
2023-04-22T11:41:02.026Z,973.85
2023-04-22T11:42:00.022Z,973.85
2023-04-22T11:43:00.010Z,973.79
2023-04-22T11:43:59.996Z,973.77
2023-04-22T11:44:59.984Z,973.86
2023-04-22T11:46:00.105Z,973.79
2023-04-22T11:46:59.970Z,973.73
2023-04-22T11:47:59.982Z,973.74
2023-04-22T11:48:59.946Z,973.75
2023-04-22T11:49:59.935Z,973.75
2023-04-22T11:50:59.927Z,973.70
2023-04-22T11:51:59.919Z,973.71
2023-04-22T11:52:59.919Z,973.70
2023-04-22T11:53:59.909Z,973.73
2023-04-22T11:54:59.893Z,973.67
2023-04-22T11:55:59.878Z,973.69
2023-04-22T11:56:59.874Z,973.65
2023-04-22T11:57:59.859Z,973.60
2023-04-22T11:58:59.853Z,973.61
2023-04-22T11:59:59.847Z,973.58
2023-04-22T12:00:59.839Z,973.58
2023-04-22T12:01:59.839Z,973.61
2023-04-22T12:02:59.953Z,973.58
2023-04-22T12:03:59.898Z,973.53
2023-04-22T12:04:59.808Z,973.53
2023-04-22T12:05:59.773Z,973.46
2023-04-22T12:07:00.766Z,973.50
2023-04-22T12:07:59.767Z,973.41
2023-04-22T12:08:59.751Z,973.52
2023-04-22T12:09:59.748Z,973.49
2023-04-22T12:10:59.734Z,973.48
2023-04-22T12:11:59.723Z,973.43
2023-04-22T12:12:59.815Z,973.46
2023-04-22T12:13:59.702Z,973.47
2023-04-22T12:14:59.696Z,973.36
2023-04-22T12:15:59.687Z,973.43
2023-04-22T12:16:59.714Z,973.48
2023-04-22T12:17:59.702Z,973.48
2023-04-22T12:18:59.659Z,973.42
2023-04-22T12:19:59.649Z,973.41
2023-04-22T12:20:59.640Z,973.53
2023-04-22T12:21:59.631Z,973.45
2023-04-22T12:22:59.637Z,973.43
2023-04-22T12:23:59.617Z,973.43
2023-04-22T12:24:59.611Z,973.41
2023-04-22T12:25:59.595Z,973.40
2023-04-22T12:26:59.586Z,973.38
2023-04-22T12:27:59.587Z,973.38